Time;durP1;ratioP1;P1;durP2;ratioP2;P2;SDS_P1;SDS_P2;PMS_P1;PMS_P2;Temp;Humidity;BMP_temperature;BMP_pressure;BME280_temperature;BME280_humidity;BME280_pressure;Samples;Min_cycle;Max_cycle;Signal;HPM_P1;HPM_P2
2024/03/03 00:00:26;;;;;;;38.05;26.63;;;;;;;6.26;100.00;92708.59;5065825;28;22259;-74
2024/03/03 00:02:53;;;;;;;36.58;25.58;;;;;;;6.03;100.00;92680.91;5064247;28;20051;-74
2024/03/03 00:05:20;;;;;;;39.53;25.40;;;;;;;6.24;100.00;92710.53;5064019;28;20048;-74
2024/03/03 00:07:47;;;;;;;46.97;31.92;;;;;;;6.22;100.00;92705.66;5062459;28;20577;-74
2024/03/03 00:10:14;;;;;;;44.83;32.58;;;;;;;6.22;100.00;92704.84;5064446;28;20045;-74
2024/03/03 00:12:41;;;;;;;50.60;33.38;;;;;;;6.18;100.00;92701.91;5065409;28;20409;-74
2024/03/03 00:15:08;;;;;;;47.67;35.28;;;;;;;6.14;100.00;92708.38;5060579;28;20565;-74
2024/03/03 00:17:37;;;;;;;33.97;23.13;;;;;;;6.09;100.00;92703.88;5062818;28;20057;-74
2024/03/03 00:20:05;;;;;;;31.17;20.95;;;;;;;6.09;100.00;92698.75;5061182;28;20044;-74
2024/03/03 00:22:32;;;;;;;36.75;24.52;;;;;;;6.08;100.00;92698.94;5060648;28;20498;-74
2024/03/03 00:24:59;;;;;;;41.13;27.20;;;;;;;6.01;100.00;92688.72;5063183;28;20056;-74
2024/03/03 00:27:26;;;;;;;38.17;25.95;;;;;;;5.89;100.00;92679.09;5065237;28;20449;-75
2024/03/03 00:29:53;;;;;;;36.42;24.58;;;;;;;5.81;100.00;92668.28;5062797;28;20544;-74
2024/03/03 00:32:20;;;;;;;35.00;24.13;;;;;;;5.85;100.00;92677.91;5063895;28;20052;-74
2024/03/03 00:34:48;;;;;;;34.67;23.05;;;;;;;5.91;100.00;92683.19;5062772;28;20052;-75
2024/03/03 00:37:18;;;;;;;33.13;22.85;;;;;;;5.83;100.00;92679.84;5054029;28;20576;-75
2024/03/03 00:39:45;;;;;;;36.75;24.80;;;;;;;5.82;100.00;92687.69;5059789;28;20049;-74
2024/03/03 00:42:12;;;;;;;35.45;22.85;;;;;;;5.74;100.00;92676.72;5065439;28;20072;-74
2024/03/03 00:44:39;;;;;;;29.63;20.55;;;;;;;5.67;100.00;92675.91;5065864;28;20048;-74
2024/03/03 00:47:06;;;;;;;28.30;18.92;;;;;;;5.59;100.00;92676.88;5058318;28;20048;-74
2024/03/03 00:49:33;;;;;;;29.00;20.05;;;;;;;5.59;100.00;92676.88;5061368;28;20422;-74
2024/03/03 00:52:02;;;;;;;33.65;20.15;;;;;;;5.52;100.00;92680.38;5058780;28;20053;-74
2024/03/03 00:54:29;;;;;;;35.47;20.58;;;;;;;5.39;100.00;92679.38;5064396;28;20075;-74
2024/03/03 00:56:56;;;;;;;33.50;20.10;;;;;;;5.33;100.00;92675.78;5063197;28;20422;-74
2024/03/03 00:59:23;;;;;;;52.50;28.13;;;;;;;5.32;100.00;92681.09;5060631;28;20053;-74
2024/03/03 01:01:50;;;;;;;41.00;24.63;;;;;;;5.27;100.00;92678.34;5061052;28;20122;-74
2024/03/03 01:04:17;;;;;;;28.58;18.90;;;;;;;5.17;100.00;92679.47;5065548;28;20051;-74
2024/03/03 01:06:44;;;;;;;27.95;18.30;;;;;;;5.16;100.00;92677.09;5060260;28;20051;-74
2024/03/03 01:09:12;;;;;;;24.40;16.10;;;;;;;5.14;100.00;92679.06;5064238;28;20044;-74
2024/03/03 01:11:39;;;;;;;28.92;18.85;;;;;;;5.01;100.00;92670.41;5062948;28;20136;-74
2024/03/03 01:14:09;;;;;;;43.67;28.75;;;;;;;4.99;100.00;92669.78;5063256;28;20049;-75
2024/03/03 01:16:36;;;;;;;36.95;24.85;;;;;;;5.04;100.00;92667.47;5065245;28;20498;-74
2024/03/03 01:19:03;;;;;;;27.88;19.55;;;;;;;5.04;100.00;92672.56;5062258;28;20064;-75
2024/03/03 01:21:30;;;;;;;30.55;20.40;;;;;;;4.96;100.00;92662.53;5059163;28;20048;-74
2024/03/03 01:23:57;;;;;;;31.27;21.55;;;;;;;4.99;100.00;92671.56;5057602;28;20086;-75
2024/03/03 01:26:25;;;;;;;28.92;20.33;;;;;;;5.00;100.00;92668.81;5060890;28;20045;-74
2024/03/03 01:28:52;;;;;;;29.67;18.98;;;;;;;5.06;100.00;92669.81;5058243;28;20049;-74
2024/03/03 01:31:19;;;;;;;27.48;17.45;;;;;;;5.13;100.00;92672.41;5063455;28;20067;-74
2024/03/03 01:33:46;;;;;;;29.70;16.55;;;;;;;5.14;100.00;92673.97;5063682;28;20051;-75
2024/03/03 01:36:13;;;;;;;24.35;16.33;;;;;;;5.14;100.00;92669.66;5068428;28;20052;-75
2024/03/03 01:38:40;;;;;;;26.13;15.80;;;;;;;5.27;100.00;92665.59;5067547;28;20052;-74
2024/03/03 01:41:07;;;;;;;21.98;14.95;;;;;;;5.15;100.00;92655.97;5058988;28;20049;-74
2024/03/03 01:43:35;;;;;;;24.02;14.55;;;;;;;5.27;100.00;92665.59;5065661;28;20163;-74
2024/03/03 01:46:03;;;;;;;22.48;13.98;;;;;;;5.34;100.00;92669.72;5065714;28;20055;-74
2024/03/03 01:48:30;;;;;;;20.80;13.60;;;;;;;5.34;100.00;92667.19;5064158;28;20040;-75
2024/03/03 01:50:59;;;;;;;22.73;13.85;;;;;;;5.38;100.00;92672.69;5061742;28;20041;-74
2024/03/03 01:53:27;;;;;;;20.35;13.15;;;;;;;5.38;100.00;92677.78;5065971;28;20048;-74
2024/03/03 01:55:55;;;;;;;17.98;12.27;;;;;;;5.41;100.00;92666.44;5062845;28;20053;-74
2024/03/03 01:58:22;;;;;;;19.40;12.43;;;;;;;5.42;100.00;92662.91;5064280;28;20054;-74
2024/03/03 02:00:51;;;;;;;21.48;12.95;;;;;;;5.44;100.00;92663.50;5065759;28;20062;-74
2024/03/03 02:03:19;;;;;;;20.05;12.43;;;;;;;5.44;100.00;92666.84;5066246;28;20050;-74
2024/03/03 02:05:46;;;;;;;21.13;13.60;;;;;;;5.45;100.00;92660.75;5067182;28;20077;-74
2024/03/03 02:08:16;;;;;;;17.40;12.18;;;;;;;5.40;100.00;92663.09;5067725;28;20055;-74
2024/03/03 02:10:43;;;;;;;18.65;12.80;;;;;;;5.39;100.00;92664.06;5064579;28;20055;-75
2024/03/03 02:13:10;;;;;;;18.73;13.27;;;;;;;5.33;100.00;92669.94;5067929;28;20052;-74
2024/03/03 02:15:37;;;;;;;21.35;14.00;;;;;;;5.26;100.00;92666.56;5068166;28;20130;-73
2024/03/03 02:18:07;;;;;;;19.63;13.57;;;;;;;5.22;100.00;92674.59;5065139;28;20063;-73
2024/03/03 02:20:34;;;;;;;31.45;19.83;;;;;;;5.10;100.00;92682.94;5064075;28;20052;-72
2024/03/03 02:23:02;;;;;;;28.38;19.10;;;;;;;5.04;100.00;92679.38;5063299;28;20060;-73
2024/03/03 02:25:29;;;;;;;30.90;21.05;;;;;;;4.91;100.00;92680.91;5065186;28;20414;-73
2024/03/03 02:27:56;;;;;;;32.30;20.85;;;;;;;4.85;100.00;92678.34;5065791;28;20070;-72
2024/03/03 02:30:23;;;;;;;31.85;20.83;;;;;;;4.89;100.00;92695.59;5067531;28;20379;-73
2024/03/03 02:32:50;;;;;;;31.52;21.13;;;;;;;4.86;100.00;92685.75;5064377;28;20048;-73
2024/03/03 02:35:17;;;;;;;47.20;23.63;;;;;;;4.83;100.00;92678.53;5067414;28;20048;-74
2024/03/03 02:37:46;;;;;;;48.72;26.38;;;;;;;4.82;100.00;92671.88;5061224;28;20052;-74
2024/03/03 02:40:14;;;;;;;42.53;23.77;;;;;;;4.90;100.00;92681.88;5062332;28;20044;-74
2024/03/03 02:42:41;;;;;;;42.00;24.63;;;;;;;4.92;100.00;92692.66;5067344;28;20090;-74
2024/03/03 02:45:08;;;;;;;36.88;22.88;;;;;;;4.91;100.00;92695.41;5064975;28;20521;-74
2024/03/03 02:47:35;;;;;;;44.78;24.70;;;;;;;4.93;100.00;92688.34;5066886;28;20059;-74
2024/03/03 02:50:03;;;;;;;42.97;25.10;;;;;;;4.93;100.00;92696.00;5067015;28;20047;-74
2024/03/03 02:52:30;;;;;;;40.85;23.77;;;;;;;4.97;100.00;92691.31;5058240;28;20044;-74
2024/03/03 02:54:57;;;;;;;40.63;24.35;;;;;;;5.00;100.00;92693.50;5062199;28;20048;-74
2024/03/03 02:57:26;;;;;;;28.77;17.90;;;;;;;4.95;100.00;92697.38;5067092;28;20051;-73
2024/03/03 02:59:54;;;;;;;28.27;18.10;;;;;;;4.90;100.00;92706.53;5066864;28;20059;-73
2024/03/03 03:02:21;;;;;;;33.30;24.83;;;;;;;4.86;100.00;92700.25;5065707;28;20574;-74
2024/03/03 03:04:48;;;;;;;47.75;29.75;;;;;;;4.90;100.00;92696.34;5065421;28;20052;-73
2024/03/03 03:07:15;;;;;;;58.42;35.38;;;;;;;4.74;100.00;92710.16;5063095;28;20048;-74
2024/03/03 03:09:45;;;;;;;52.60;33.42;;;;;;;4.84;100.00;92705.53;5066953;28;20066;-73
2024/03/03 03:12:12;;;;;;;45.45;27.88;;;;;;;4.86;100.00;92703.56;5064018;28;20520;-73
2024/03/03 03:14:41;;;;;;;45.90;28.17;;;;;;;4.86;100.00;92702.81;5066689;28;20052;-73
2024/03/03 03:17:08;;;;;;;46.22;26.85;;;;;;;4.75;100.00;92701.56;5063824;28;20059;-73
2024/03/03 03:19:35;;;;;;;47.00;26.20;;;;;;;4.90;100.00;92714.97;5062545;28;20403;-73
2024/03/03 03:22:02;;;;;;;42.85;26.13;;;;;;;4.91;100.00;92703.03;5060536;28;20040;-74
2024/03/03 03:24:29;;;;;;;47.20;26.30;;;;;;;4.92;100.00;92710.47;5064831;28;20084;-74
2024/03/03 03:26:56;;;;;;;52.53;29.63;;;;;;;4.74;100.00;92705.88;5066406;28;20422;-73
2024/03/03 03:29:23;;;;;;;50.80;28.52;;;;;;;4.73;100.00;92703.50;5062422;28;20056;-74
2024/03/03 03:31:52;;;;;;;54.72;27.52;;;;;;;4.70;100.00;92706.41;5063718;28;20044;-74
2024/03/03 03:34:18;;;;;;;55.20;29.58;;;;;;;4.61;100.00;92705.75;5061096;28;20135;-72
2024/03/03 03:36:45;;;;;;;58.80;29.90;;;;;;;4.69;100.00;92705.63;5065832;28;20150;-73
2024/03/03 03:39:13;;;;;;;55.40;29.58;;;;;;;4.71;100.00;92703.69;5064656;28;20044;-74
2024/03/03 03:41:46;;;;;;;66.53;31.88;;;;;;;4.72;100.00;92689.22;5065595;28;20048;-74
2024/03/03 03:44:14;;;;;;;57.10;28.75;;;;;;;4.68;100.00;92709.16;5066388;28;20577;-74
2024/03/03 03:46:41;;;;;;;58.97;28.23;;;;;;;4.28;100.00;92679.94;5061678;28;20049;-74
2024/03/03 03:49:11;;;;;;;45.30;25.35;;;;;;;4.30;100.00;92707.69;5065990;28;20045;-74
2024/03/03 03:51:38;;;;;;;55.85;29.65;;;;;;;4.22;100.00;92712.91;5059666;28;20051;-74
2024/03/03 03:54:05;;;;;;;54.58;28.92;;;;;;;3.96;100.00;92704.06;5055044;28;20045;-74
2024/03/03 03:56:33;;;;;;;60.85;32.03;;;;;;;4.06;100.00;92701.22;5064142;28;20044;-74
2024/03/03 03:59:00;;;;;;;51.50;30.95;;;;;;;3.98;100.00;92705.47;5065980;28;20048;-74
2024/03/03 04:01:28;;;;;;;69.18;30.02;;;;;;;3.80;100.00;92712.72;5064755;28;20063;-74
2024/03/03 04:03:55;;;;;;;54.55;29.70;;;;;;;3.74;100.00;92701.53;5062421;28;20049;-75
2024/03/03 04:06:24;;;;;;;55.38;30.02;;;;;;;3.81;100.00;92689.69;5064697;28;20494;-75
2024/03/03 04:08:51;;;;;;;53.15;30.08;;;;;;;3.85;100.00;92702.81;5065777;28;20048;-75
2024/03/03 04:11:18;;;;;;;67.28;34.83;;;;;;;4.01;100.00;92699.25;5062592;28;20051;-74
2024/03/03 04:13:47;;;;;;;67.38;33.00;;;;;;;3.72;100.00;92700.91;5063211;28;20435;-74
2024/03/03 04:16:14;;;;;;;63.22;35.22;;;;;;;3.85;100.00;92698.50;5062238;28;20055;-74
2024/03/03 04:18:41;;;;;;;64.50;34.33;;;;;;;4.07;100.00;92706.13;5066261;28;20074;-74
2024/03/03 04:21:08;;;;;;;65.88;32.80;;;;;;;4.16;100.00;92713.66;5058572;28;20048;-74
2024/03/03 04:23:37;;;;;;;76.35;35.72;;;;;;;4.32;100.00;92708.31;5064780;28;20143;-74
2024/03/03 04:26:05;;;;;;;64.03;34.60;;;;;;;4.33;100.00;92692.09;5062173;28;20067;-74
2024/03/03 04:28:32;;;;;;;64.38;32.35;;;;;;;4.31;100.00;92691.50;5064795;28;20045;-74
2024/03/03 04:30:59;;;;;;;71.07;34.83;;;;;;;4.40;100.00;92707.41;5063878;28;20139;-74
2024/03/03 04:33:26;;;;;;;65.88;32.90;;;;;;;4.46;100.00;92695.69;5061238;28;20047;-74
2024/03/03 04:35:53;;;;;;;64.93;34.28;;;;;;;4.39;100.00;92698.19;5065988;28;20087;-74
2024/03/03 04:38:20;;;;;;;63.17;31.40;;;;;;;4.31;100.00;92704.19;5061698;28;20425;-74
2024/03/03 04:40:48;;;;;;;56.33;30.95;;;;;;;4.35;100.00;92707.16;5065847;28;20051;-74
2024/03/03 04:43:15;;;;;;;62.45;32.85;;;;;;;4.44;100.00;92697.63;5062147;28;20089;-74
2024/03/03 04:45:41;;;;;;;69.00;35.33;;;;;;;4.35;100.00;92699.53;5065603;28;20052;-74
2024/03/03 04:48:08;;;;;;;65.88;35.00;;;;;;;4.35;100.00;92702.84;5062088;28;20049;-74
2024/03/03 04:50:35;;;;;;;72.32;35.33;;;;;;;4.39;100.00;92696.44;5067835;28;20049;-74
2024/03/03 04:53:03;;;;;;;70.43;35.08;;;;;;;4.50;100.00;92704.53;5063558;28;20424;-74
2024/03/03 04:55:30;;;;;;;68.28;33.97;;;;;;;4.53;100.00;92704.16;5069564;28;20063;-74
2024/03/03 04:57:58;;;;;;;68.13;35.17;;;;;;;4.40;100.00;92703.09;5069613;28;20063;-74
2024/03/03 05:00:25;;;;;;;66.90;32.88;;;;;;;4.23;100.00;92700.03;5067628;28;20080;-75
2024/03/03 05:02:52;;;;;;;68.60;33.33;;;;;;;4.16;100.00;92667.91;5065205;28;20063;-75
2024/03/03 05:05:20;;;;;;;77.75;35.42;;;;;;;4.57;100.00;92707.13;5069198;28;20040;-74
2024/03/03 05:07:47;;;;;;;67.40;33.72;;;;;;;4.63;100.00;92708.94;5059770;28;20102;-74
2024/03/03 05:10:14;;;;;;;82.15;39.22;;;;;;;4.76;100.00;92705.66;5067669;28;20098;-74
2024/03/03 05:12:41;;;;;;;62.17;33.75;;;;;;;4.82;100.00;92710.81;5069193;28;20051;-74
2024/03/03 05:15:10;;;;;;;49.25;25.33;;;;;;;4.89;100.00;92721.03;5066588;28;20067;-74
2024/03/03 05:17:37;;;;;;;60.95;31.70;;;;;;;4.84;100.00;92715.72;5068090;28;20056;-75
2024/03/03 05:20:05;;;;;;;67.80;34.08;;;;;;;4.89;100.00;92715.94;5063817;28;20045;-74
2024/03/03 05:22:32;;;;;;;50.72;30.73;;;;;;;4.85;100.00;92713.97;5065929;28;20131;-74
2024/03/03 05:24:59;;;;;;;59.80;33.80;;;;;;;4.74;100.00;92720.34;5067834;28;20052;-75
2024/03/03 05:27:27;;;;;;;54.22;31.67;;;;;;;4.61;100.00;92726.13;5059379;28;20071;-75
2024/03/03 05:29:54;;;;;;;43.08;23.88;;;;;;;4.38;100.00;92733.00;5063887;28;20432;-75
2024/03/03 05:32:22;;;;;;;41.95;22.75;;;;;;;4.23;100.00;92717.81;5067151;28;20041;-75
2024/03/03 05:34:49;;;;;;;43.35;25.30;;;;;;;4.08;100.00;92739.97;5064525;28;20048;-75
2024/03/03 05:37:16;;;;;;;47.00;28.05;;;;;;;4.00;100.00;92733.25;5063104;28;20087;-75
2024/03/03 05:39:43;;;;;;;52.60;36.03;;;;;;;3.73;100.00;92728.69;5064252;28;20036;-75
2024/03/03 05:42:11;;;;;;;50.42;34.47;;;;;;;3.69;100.00;92745.25;5065645;28;20048;-75
2024/03/03 05:44:56;;;;;;;41.92;25.67;;;;;;;3.56;100.00;92740.81;5057251;28;20092;-75
2024/03/03 05:47:24;;;;;;;;;;;;;;;3.56;100.00;92743.34;5053383;28;20048;-75
2024/03/03 05:49:51;;;;;;;47.15;24.20;;;;;;;3.33;100.00;92739.16;5052563;28;20378;-74
2024/03/03 05:52:18;;;;;;;50.50;30.23;;;;;;;3.42;100.00;92747.47;5055152;28;20037;-75
2024/03/03 05:54:45;;;;;;;45.53;28.05;;;;;;;3.52;100.00;92754.81;5050447;28;20091;-74
2024/03/03 05:57:13;;;;;;;48.25;27.80;;;;;;;3.63;100.00;92758.66;5049521;28;20055;-74
2024/03/03 05:59:40;;;;;;;44.80;26.40;;;;;;;3.76;100.00;92767.41;5045634;28;20666;-75
2024/03/03 06:02:07;;;;;;;43.70;29.73;;;;;;;3.73;100.00;92764.25;5048302;28;20059;-75
2024/03/03 06:04:36;;;;;;;45.88;25.10;;;;;;;3.45;100.00;92761.56;5050459;28;20040;-75
2024/03/03 06:07:05;;;;;;;49.92;27.60;;;;;;;3.58;100.00;92766.81;5050261;28;20055;-75
2024/03/03 06:09:32;;;;;;;45.72;26.08;;;;;;;3.53;100.00;92761.50;5049664;28;20098;-75
2024/03/03 06:12:00;;;;;;;68.95;32.63;;;;;;;3.62;100.00;92767.25;5051410;28;20041;-74
2024/03/03 06:14:27;;;;;;;60.88;32.42;;;;;;;3.65;100.00;92763.56;5055903;28;20052;-75
2024/03/03 06:16:54;;;;;;;54.95;29.77;;;;;;;3.96;100.00;92765.88;5050109;28;20053;-74
2024/03/03 06:19:21;;;;;;;54.08;30.30;;;;;;;4.14;100.00;92773.09;5050788;28;20048;-74
2024/03/03 06:21:50;;;;;;;59.55;29.17;;;;;;;4.22;100.00;92751.81;5056043;28;20115;-74
2024/03/03 06:24:17;;;;;;;52.88;28.15;;;;;;;4.32;100.00;92769.34;5061781;28;20048;-73
2024/03/03 06:26:44;;;;;;;56.97;27.15;;;;;;;4.14;100.00;92778.16;5052679;28;20338;-73
2024/03/03 06:29:11;;;;;;;53.22;29.42;;;;;;;4.28;100.00;92779.09;5052344;28;20054;-73
2024/03/03 06:31:44;;;;;;;49.13;26.98;;;;;;;4.26;100.00;92760.66;5052341;28;20045;-73
2024/03/03 06:34:11;;;;;;;55.70;30.48;;;;;;;4.46;100.00;92780.41;5053057;28;20052;-74
2024/03/03 06:36:38;;;;;;;50.92;28.15;;;;;;;4.22;100.00;92730.72;5059256;28;20048;-73
2024/03/03 06:39:10;;;;;;;58.67;29.63;;;;;;;4.54;100.00;92771.88;5061036;28;20044;-73
2024/03/03 06:41:37;;;;;;;61.38;31.58;;;;;;;4.68;100.00;92772.75;5052072;28;20130;-74
2024/03/03 06:44:05;;;;;;;56.65;30.83;;;;;;;4.80;100.00;92773.84;5054893;28;20730;-74
2024/03/03 06:46:32;;;;;;;54.45;30.42;;;;;;;4.78;100.00;92777.53;5060697;28;20053;-74
2024/03/03 06:48:59;;;;;;;62.70;37.00;;;;;;;5.01;100.00;92772.22;5052227;28;20168;-75
2024/03/03 06:51:25;;;;;;;56.90;32.65;;;;;;;5.19;100.00;92776.81;5050298;28;20049;-76
2024/03/03 06:53:52;;;;;;;55.70;31.90;;;;;;;5.35;100.00;92777.50;5056421;28;20053;-75
2024/03/03 06:56:21;;;;;;;59.05;29.55;;;;;;;5.42;100.00;92764.78;5056032;28;20052;-75
2024/03/03 06:58:48;;;;;;;62.40;33.10;;;;;;;5.47;100.00;92775.22;5056258;28;20139;-75
2024/03/03 07:01:15;;;;;;;55.67;31.33;;;;;;;5.27;100.00;92762.38;5048782;28;20048;-75
2024/03/03 07:04:08;;;;;;;50.95;30.20;;;;;;;5.19;100.00;92758.97;5052210;28;20045;-75
2024/03/03 07:06:36;;;;;;;52.38;29.77;;;;;;;5.44;100.00;92773.81;5057337;28;20053;-75
2024/03/03 07:09:04;;;;;;;58.30;33.58;;;;;;;5.50;100.00;92762.06;5053325;28;20056;-75
2024/03/03 07:11:33;;;;;;;64.38;33.60;;;;;;;5.59;100.00;92762.69;5056292;28;20037;-75
2024/03/03 07:14:00;;;;;;;59.50;32.08;;;;;;;5.66;100.00;92770.38;5050555;28;20045;-75
2024/03/03 07:16:27;;;;;;;61.78;35.13;;;;;;;5.71;100.00;92760.41;5053253;28;20383;-75
2024/03/03 07:18:54;;;;;;;64.25;35.42;;;;;;;5.87;100.00;92772.00;5049713;28;20777;-75
2024/03/03 07:21:21;;;;;;;64.88;36.15;;;;;;;5.93;100.00;92768.69;5051605;28;20055;-75
2024/03/03 07:23:47;;;;;;;56.90;33.67;;;;;;;5.91;100.00;92768.13;5051483;28;20098;-76
2024/03/03 07:26:14;;;;;;;61.13;33.13;;;;;;;5.84;100.00;92757.88;5056994;28;20044;-75
2024/03/03 07:28:43;;;;;;;53.92;32.08;;;;;;;5.69;100.00;92760.59;5052031;28;20049;-75
2024/03/03 07:31:10;;;;;;;65.65;34.38;;;;;;;5.98;100.00;92773.25;5055315;28;20530;-75
2024/03/03 07:33:37;;;;;;;69.47;38.17;;;;;;;6.11;100.00;92773.28;5054361;28;20052;-75
2024/03/03 07:36:05;;;;;;;62.45;35.65;;;;;;;6.25;100.00;92775.88;5058394;28;20045;-75
2024/03/03 07:38:32;;;;;;;53.30;30.98;;;;;;;5.95;100.00;92779.50;5049055;28;20564;-75
2024/03/03 07:40:59;;;;;;;53.05;29.33;;;;;;;5.48;100.00;92772.44;5053539;28;20514;-75
2024/03/03 07:43:26;;;;;;;51.42;28.02;;;;;;;5.49;100.00;92760.50;5059397;28;20099;-75
2024/03/03 07:45:55;;;;;;;46.05;26.92;;;;;;;5.08;100.00;92775.59;5056338;28;20437;-75
2024/03/03 07:48:22;;;;;;;52.40;29.05;;;;;;;4.69;100.00;92771.78;5047031;28;20048;-75
2024/03/03 07:50:49;;;;;;;53.42;31.55;;;;;;;4.63;100.00;92752.94;5050973;28;20051;-75
2024/03/03 07:53:16;;;;;;;60.53;31.98;;;;;;;4.95;100.00;92775.47;5053080;28;20118;-75
2024/03/03 07:55:43;;;;;;;49.28;29.13;;;;;;;5.10;100.00;92731.31;5053619;28;20059;-75
2024/03/03 07:58:11;;;;;;;50.17;30.00;;;;;;;5.51;100.00;92763.66;5051446;28;20058;-75
2024/03/03 08:00:38;;;;;;;176.20;73.63;;;;;;;5.59;100.00;92760.94;5054637;28;20126;-75
2024/03/03 08:03:07;;;;;;;117.50;63.78;;;;;;;5.95;100.00;92758.31;5050803;28;20049;-75
2024/03/03 08:05:34;;;;;;;98.20;55.85;;;;;;;6.27;100.00;92756.88;5052100;28;20142;-75
2024/03/03 08:08:02;;;;;;;142.60;72.85;;;;;;;6.56;100.00;92749.03;5055314;28;20047;-74
2024/03/03 08:10:29;;;;;;;161.65;81.95;;;;;;;6.73;100.00;92762.19;5055197;28;20418;-76
2024/03/03 08:12:56;;;;;;;74.55;39.47;;;;;;;6.88;100.00;92756.06;5051292;28;20502;-75
2024/03/03 08:15:23;;;;;;;93.35;46.63;;;;;;;6.33;100.00;92764.69;5049998;28;20498;-75
2024/03/03 08:17:50;;;;;;;77.25;41.15;;;;;;;6.05;100.00;92760.53;5052898;28;20049;-75
2024/03/03 08:20:19;;;;;;;78.68;43.28;;;;;;;6.19;100.00;92762.13;5052469;28;20503;-74
2024/03/03 08:22:46;;;;;;;81.28;40.28;;;;;;;6.63;100.00;92754.13;5053376;28;20040;-75
2024/03/03 08:25:14;;;;;;;75.05;36.55;;;;;;;6.12;100.00;92758.78;5049165;28;20045;-75
2024/03/03 08:27:42;;;;;;;77.40;38.25;;;;;;;5.84;100.00;92759.66;5049272;28;20056;-75
2024/03/03 08:30:11;;;;;;;84.25;37.75;;;;;;;6.00;100.00;92771.28;5047890;28;20510;-75
2024/03/03 08:32:39;;;;;;;72.82;37.70;;;;;;;6.23;100.00;92745.47;5049234;28;20046;-75
2024/03/03 08:35:06;;;;;;;64.20;33.42;;;;;;;6.61;100.00;92758.66;5049743;28;20425;-75
2024/03/03 08:37:35;;;;;;;69.28;34.00;;;;;;;6.52;100.00;92756.28;5051669;28;20498;-75
2024/03/03 08:40:04;;;;;;;74.32;34.00;;;;;;;6.71;100.00;92742.94;5050746;28;20065;-75
2024/03/03 08:42:31;;;;;;;69.45;30.38;;;;;;;7.05;100.00;92759.78;5049728;28;20082;-75
2024/03/03 08:44:58;;;;;;;71.57;33.50;;;;;;;7.01;100.00;92743.31;5047192;28;20080;-75
2024/03/03 08:47:25;;;;;;;78.15;37.22;;;;;;;7.39;100.00;92761.50;5047453;28;20078;-74
2024/03/03 08:49:52;;;;;;;77.93;35.13;;;;;;;7.62;100.00;92751.59;5050696;28;20053;-75
2024/03/03 08:52:19;;;;;;;78.97;34.38;;;;;;;7.62;100.00;92763.59;5052741;28;20058;-75
2024/03/03 08:54:47;;;;;;;76.63;34.38;;;;;;;7.51;100.00;92759.91;5049521;28;20410;-76
2024/03/03 08:57:14;;;;;;;86.35;36.13;;;;;;;7.17;100.00;92756.66;5053543;28;20053;-75
2024/03/03 08:59:41;;;;;;;74.30;36.38;;;;;;;7.69;100.00;92755.91;5048290;28;20695;-75
2024/03/03 09:02:08;;;;;;;75.10;37.72;;;;;;;8.14;100.00;92752.53;5049511;28;20055;-76
2024/03/03 09:04:37;;;;;;;75.63;37.80;;;;;;;8.58;100.00;92755.25;5048280;28;20053;-76
2024/03/03 09:07:07;;;;;;;75.22;37.42;;;;;;;8.62;100.00;92753.06;5055364;28;20076;-76
2024/03/03 09:09:34;;;;;;;76.13;38.63;;;;;;;8.71;100.00;92761.25;5046973;28;20696;-76
2024/03/03 09:12:03;;;;;;;79.97;39.13;;;;;;;9.12;100.00;92741.22;5047892;28;20049;-76
2024/03/03 09:14:31;;;;;;;77.55;38.40;;;;;;;9.61;100.00;92747.22;5047336;28;20500;-76
2024/03/03 09:16:58;;;;;;;86.28;40.20;;;;;;;9.27;100.00;92767.28;5046605;28;20049;-76
2024/03/03 09:19:25;;;;;;;89.15;39.50;;;;;;;9.08;100.00;92761.34;5049560;28;20663;-76
2024/03/03 09:21:53;;;;;;;86.40;39.28;;;;;;;8.44;100.00;92762.22;5049821;28;20045;-76
2024/03/03 09:24:22;;;;;;;89.15;42.47;;;;;;;9.08;100.00;92745.97;5048359;28;20041;-76
2024/03/03 09:26:49;;;;;;;75.78;38.88;;;;;;;8.94;100.00;92745.31;5048196;28;20150;-76
2024/03/03 09:29:18;;;;;;;79.30;39.25;;;;;;;9.33;100.00;92745.94;5046355;28;20778;-76
2024/03/03 09:31:45;;;;;;;80.05;38.10;;;;;;;9.55;100.00;92744.72;5049297;28;20075;-75
2024/03/03 09:34:12;;;;;;;72.38;39.85;;;;;;;9.90;100.00;92728.72;5058221;28;20040;-75
2024/03/03 09:36:39;;;;;;;71.40;36.92;;;;;;;10.13;100.00;92740.84;5059778;28;20122;-75
2024/03/03 09:39:07;;;;;;;63.65;30.75;;;;;;;10.48;100.00;92725.78;5050930;28;20421;-75
2024/03/03 09:41:34;;;;;;;60.28;30.88;;;;;;;10.60;100.00;92744.56;5054027;28;20452;-75
2024/03/03 09:44:10;;;;;;;62.40;31.38;;;;;;;11.22;100.00;92738.22;5054100;28;20468;-75
2024/03/03 09:46:41;;;;;;;50.85;27.30;;;;;;;11.27;100.00;92747.84;5050479;28;20540;-75
2024/03/03 09:49:14;;;;;;;62.60;29.95;;;;;;;11.75;100.00;92734.88;5052182;28;20041;-75
2024/03/03 09:51:43;;;;;;;56.83;28.77;;;;;;;11.98;100.00;92738.38;5054339;28;20044;-75
2024/03/03 09:54:12;;;;;;;53.00;25.77;;;;;;;11.77;100.00;92748.31;5054017;28;20127;-76
2024/03/03 09:56:42;;;;;;;53.65;27.25;;;;;;;12.17;100.00;92739.00;5053043;28;20045;-75
2024/03/03 09:59:09;;;;;;;59.65;27.00;;;;;;;12.52;100.00;92737.28;5062419;28;20608;-76
2024/03/03 10:01:40;;;;;;;60.75;27.55;;;;;;;12.65;100.00;92742.13;5050152;28;20084;-75
2024/03/03 10:04:08;;;;;;;56.22;23.77;;;;;;;12.73;100.00;92740.19;5050793;28;20064;-75
2024/03/03 10:06:39;;;;;;;52.33;25.83;;;;;;;12.92;100.00;92738.91;5051319;28;20049;-76
2024/03/03 10:09:10;;;;;;;47.35;20.80;;;;;;;12.92;100.00;92738.91;5051107;28;20049;-75
2024/03/03 10:11:38;;;;;;;53.40;22.15;;;;;;;13.13;100.00;92735.84;5055541;28;20887;-76
2024/03/03 10:14:06;;;;;;;50.25;21.13;;;;;;;12.88;100.00;92729.31;5050907;28;20072;-76
2024/03/03 10:16:34;;;;;;;49.72;21.38;;;;;;;13.05;100.00;92724.94;5049760;28;20099;-76
2024/03/03 10:19:04;;;;;;;51.80;21.95;;;;;;;13.32;100.00;92733.78;5049710;28;20425;-76
2024/03/03 10:21:37;;;;;;;52.33;22.45;;;;;;;13.76;100.00;92715.78;5052004;28;20055;-76
2024/03/03 10:24:22;;;;;;;46.92;19.88;;;;;;;13.49;100.00;92718.31;5057228;28;20071;-76
2024/03/03 10:26:49;;;;;;;36.30;15.63;;;;;;;13.57;96.47;92727.44;5051430;28;20049;-76
2024/03/03 10:29:18;;;;;;;40.47;16.17;;;;;;;13.96;98.86;92713.66;5050716;28;20797;-76
2024/03/03 10:31:46;;;;;;;37.10;14.95;;;;;;;14.21;100.00;92707.97;5056719;28;20055;-77
2024/03/03 10:34:14;;;;;;;34.13;12.77;;;;;;;13.77;92.86;92708.81;5060967;28;20044;-75
2024/03/03 10:36:44;;;;;;;31.77;12.40;;;;;;;13.72;88.58;92719.09;5048928;28;20095;-76
2024/03/03 10:39:12;;;;;;;22.83;8.85;;;;;;;13.60;83.66;92720.00;5052448;28;20046;-76
2024/03/03 10:41:40;;;;;;;21.27;8.93;;;;;;;13.70;87.74;92698.66;5058659;28;20411;-75
2024/03/03 10:44:08;;;;;;;23.58;9.63;;;;;;;14.16;91.68;92695.00;5058016;28;20049;-75
2024/03/03 10:46:36;;;;;;;25.20;9.77;;;;;;;13.74;83.90;92696.38;5049137;28;20108;-76
2024/03/03 10:49:03;;;;;;;17.23;6.80;;;;;;;13.65;86.72;92693.44;5052290;28;20052;-75
2024/03/03 10:51:33;;;;;;;13.50;6.40;;;;;;;13.65;82.05;92683.13;5050155;28;20059;-76
2024/03/03 10:54:02;;;;;;;15.32;6.40;;;;;;;13.85;77.28;92695.47;5049950;28;20037;-76
2024/03/03 10:56:30;;;;;;;25.70;11.02;;;;;;;13.68;78.27;92687.81;5050107;28;20059;-76
2024/03/03 10:58:58;;;;;;;11.73;5.75;;;;;;;13.73;80.24;92687.88;5056029;28;20422;-76
2024/03/03 11:01:26;;;;;;;15.40;5.70;;;;;;;14.13;80.55;92680.00;5050446;28;20063;-76
2024/03/03 11:03:56;;;;;;;12.48;5.90;;;;;;;14.58;86.30;92667.69;5054546;28;20048;-76
2024/03/03 11:06:24;;;;;;;17.52;6.30;;;;;;;15.04;80.19;92674.25;5051358;28;20049;-76
2024/03/03 11:08:54;;;;;;;11.40;5.85;;;;;;;15.30;82.07;92659.63;5050816;28;20095;-76
2024/03/03 11:11:23;;;;;;;8.80;4.88;;;;;;;15.35;72.37;92664.03;5052823;28;20049;-76
2024/03/03 11:13:57;;;;;;;11.05;5.15;;;;;;;14.79;72.34;92665.28;5050099;28;20136;-76
2024/03/03 11:16:28;;;;;;;9.63;4.50;;;;;;;14.98;71.42;92644.97;5049858;28;20110;-76
2024/03/03 11:19:01;;;;;;;10.95;5.30;;;;;;;14.80;69.02;92653.91;5052981;28;20506;-76